Ituporanga, Brazil
Current Conditions -  °F | °C
As of 2:00 PM on Sunday 25 Jan 2015 (Local Time) from SBFL Reporting Station
Thunderstorm Thunderstorm  
Wind Chill: 72°   Ceiling: 2000
Heat Index: 72°   Visibility: 1.2mi
Dew Point: 68°   Wind: 20mph
Humidity: 88%   Direction: 250°WSW
Pressure: 29.94"   Gusts: 31mph
Location:  27.41°S, 49.6°W
Report Text: SBFL 251600Z 25017G27KT 2000 R14/1600 R32/2000 TSRA BKN020 SCT030 FEW035CB BKN070 22/20 Q1014
Loading
Personal Weather Stations






























Interactive Weather Map New forecast layout! Learn more

10-Day Weather Forecast

Advertisements
Track Severe Weather on mobile